sensor_id;sensor_type;location;lat;lon;timestamp;P1;durP1;ratioP1;P2;durP2;ratioP2
70744;SDS011;59284;31.390;34.904;2023-04-26T00:02:11;17.95;;;9.98;;
70744;SDS011;59284;31.390;34.904;2023-04-26T00:04:37;18.47;;;8.97;;
70744;SDS011;59284;31.390;34.904;2023-04-26T00:07:04;19.48;;;10.07;;
70744;SDS011;59284;31.390;34.904;2023-04-26T00:09:29;14.63;;;9.20;;
70744;SDS011;59284;31.390;34.904;2023-04-26T00:11:55;15.40;;;9.23;;
70744;SDS011;59284;31.390;34.904;2023-04-26T00:14:21;17.60;;;9.38;;
70744;SDS011;59284;31.390;34.904;2023-04-26T00:16:47;16.63;;;9.60;;
70744;SDS011;59284;31.390;34.904;2023-04-26T00:19:12;19.08;;;9.68;;
70744;SDS011;59284;31.390;34.904;2023-04-26T00:21:38;19.07;;;9.53;;
70744;SDS011;59284;31.390;34.904;2023-04-26T00:24:04;15.23;;;8.13;;
70744;SDS011;59284;31.390;34.904;2023-04-26T00:26:30;16.48;;;7.95;;
70744;SDS011;59284;31.390;34.904;2023-04-26T00:28:56;13.10;;;6.82;;
70744;SDS011;59284;31.390;34.904;2023-04-26T00:31:22;12.97;;;6.10;;
70744;SDS011;59284;31.390;34.904;2023-04-26T00:33:47;11.55;;;5.97;;
70744;SDS011;59284;31.390;34.904;2023-04-26T00:36:13;9.83;;;5.20;;
70744;SDS011;59284;31.390;34.904;2023-04-26T00:38:41;7.68;;;4.28;;
70744;SDS011;59284;31.390;34.904;2023-04-26T00:41:06;7.07;;;3.73;;
70744;SDS011;59284;31.390;34.904;2023-04-26T00:43:32;7.68;;;3.72;;
70744;SDS011;59284;31.390;34.904;2023-04-26T00:45:58;7.30;;;3.78;;
70744;SDS011;59284;31.390;34.904;2023-04-26T00:48:23;8.10;;;4.63;;
70744;SDS011;59284;31.390;34.904;2023-04-26T00:50:50;8.55;;;4.43;;
70744;SDS011;59284;31.390;34.904;2023-04-26T00:53:16;10.90;;;5.07;;
70744;SDS011;59284;31.390;34.904;2023-04-26T00:55:42;9.77;;;4.80;;
70744;SDS011;59284;31.390;34.904;2023-04-26T00:58:07;9.25;;;5.15;;
70744;SDS011;59284;31.390;34.904;2023-04-26T01:00:33;10.37;;;5.37;;
70744;SDS011;59284;31.390;34.904;2023-04-26T01:02:59;15.63;;;5.78;;
70744;SDS011;59284;31.390;34.904;2023-04-26T01:05:25;11.90;;;6.20;;
70744;SDS011;59284;31.390;34.904;2023-04-26T01:07:51;11.18;;;5.90;;
70744;SDS011;59284;31.390;34.904;2023-04-26T01:10:16;10.40;;;6.32;;
70744;SDS011;59284;31.390;34.904;2023-04-26T01:12:42;14.03;;;6.50;;
70744;SDS011;59284;31.390;34.904;2023-04-26T01:15:08;11.40;;;6.47;;
70744;SDS011;59284;31.390;34.904;2023-04-26T01:17:34;13.43;;;6.57;;
70744;SDS011;59284;31.390;34.904;2023-04-26T01:20:03;8.63;;;5.80;;
70744;SDS011;59284;31.390;34.904;2023-04-26T01:22:32;11.80;;;6.07;;
70744;SDS011;59284;31.390;34.904;2023-04-26T01:24:58;10.80;;;5.78;;
70744;SDS011;59284;31.390;34.904;2023-04-26T01:27:23;10.77;;;5.77;;
70744;SDS011;59284;31.390;34.904;2023-04-26T01:29:49;12.65;;;6.20;;
70744;SDS011;59284;31.390;34.904;2023-04-26T01:32:15;9.53;;;5.23;;
70744;SDS011;59284;31.390;34.904;2023-04-26T01:34:40;12.70;;;5.68;;
70744;SDS011;59284;31.390;34.904;2023-04-26T01:37:06;12.57;;;5.83;;
70744;SDS011;59284;31.390;34.904;2023-04-26T01:39:32;13.70;;;5.10;;
70744;SDS011;59284;31.390;34.904;2023-04-26T01:41:58;10.67;;;4.70;;
70744;SDS011;59284;31.390;34.904;2023-04-26T01:44:24;8.10;;;4.53;;
70744;SDS011;59284;31.390;34.904;2023-04-26T01:46:50;7.97;;;4.50;;
70744;SDS011;59284;31.390;34.904;2023-04-26T01:49:15;11.38;;;5.03;;
70744;SDS011;59284;31.390;34.904;2023-04-26T01:51:41;8.37;;;5.13;;
70744;SDS011;59284;31.390;34.904;2023-04-26T01:54:06;8.13;;;3.95;;
70744;SDS011;59284;31.390;34.904;2023-04-26T01:56:32;10.13;;;4.70;;
70744;SDS011;59284;31.390;34.904;2023-04-26T01:58:59;8.32;;;5.07;;
70744;SDS011;59284;31.390;34.904;2023-04-26T02:01:24;8.73;;;4.30;;
70744;SDS011;59284;31.390;34.904;2023-04-26T02:03:50;7.68;;;3.90;;
70744;SDS011;59284;31.390;34.904;2023-04-26T02:06:16;7.40;;;4.70;;
70744;SDS011;59284;31.390;34.904;2023-04-26T02:08:42;9.60;;;4.13;;
70744;SDS011;59284;31.390;34.904;2023-04-26T02:11:07;5.00;;;2.73;;
70744;SDS011;59284;31.390;34.904;2023-04-26T02:13:34;7.63;;;3.28;;
70744;SDS011;59284;31.390;34.904;2023-04-26T02:15:59;4.80;;;2.00;;
70744;SDS011;59284;31.390;34.904;2023-04-26T02:18:25;6.15;;;1.90;;
70744;SDS011;59284;31.390;34.904;2023-04-26T02:20:50;5.90;;;1.93;;
70744;SDS011;59284;31.390;34.904;2023-04-26T02:23:16;2.45;;;1.30;;
70744;SDS011;59284;31.390;34.904;2023-04-26T02:25:44;5.33;;;1.80;;
70744;SDS011;59284;31.390;34.904;2023-04-26T02:28:10;4.35;;;1.85;;
70744;SDS011;59284;31.390;34.904;2023-04-26T02:30:36;3.03;;;1.87;;
70744;SDS011;59284;31.390;34.904;2023-04-26T02:33:01;3.10;;;1.50;;
70744;SDS011;59284;31.390;34.904;2023-04-26T02:35:27;3.57;;;1.40;;
70744;SDS011;59284;31.390;34.904;2023-04-26T02:37:52;2.83;;;1.50;;
70744;SDS011;59284;31.390;34.904;2023-04-26T02:40:18;3.63;;;1.50;;
70744;SDS011;59284;31.390;34.904;2023-04-26T02:42:44;3.83;;;2.10;;
70744;SDS011;59284;31.390;34.904;2023-04-26T02:45:10;5.27;;;1.50;;
70744;SDS011;59284;31.390;34.904;2023-04-26T02:47:36;3.25;;;1.35;;
70744;SDS011;59284;31.390;34.904;2023-04-26T02:50:03;2.97;;;1.27;;
70744;SDS011;59284;31.390;34.904;2023-04-26T02:52:29;2.50;;;1.20;;
70744;SDS011;59284;31.390;34.904;2023-04-26T02:54:55;2.35;;;1.05;;
70744;SDS011;59284;31.390;34.904;2023-04-26T02:57:21;2.90;;;1.40;;
70744;SDS011;59284;31.390;34.904;2023-04-26T02:59:46;2.80;;;1.47;;
70744;SDS011;59284;31.390;34.904;2023-04-26T03:02:13;3.10;;;1.30;;
70744;SDS011;59284;31.390;34.904;2023-04-26T03:04:39;3.70;;;1.50;;
70744;SDS011;59284;31.390;34.904;2023-04-26T03:07:06;3.80;;;1.20;;
70744;SDS011;59284;31.390;34.904;2023-04-26T03:09:31;3.00;;;1.43;;
70744;SDS011;59284;31.390;34.904;2023-04-26T03:11:58;2.85;;;1.10;;
70744;SDS011;59284;31.390;34.904;2023-04-26T03:14:24;3.20;;;1.00;;
70744;SDS011;59284;31.390;34.904;2023-04-26T03:16:51;3.03;;;1.20;;
70744;SDS011;59284;31.390;34.904;2023-04-26T03:19:17;3.13;;;1.02;;
70744;SDS011;59284;31.390;34.904;2023-04-26T03:21:43;3.60;;;1.20;;
70744;SDS011;59284;31.390;34.904;2023-04-26T03:24:08;2.50;;;1.10;;
70744;SDS011;59284;31.390;34.904;2023-04-26T03:26:35;3.03;;;1.13;;
70744;SDS011;59284;31.390;34.904;2023-04-26T03:29:01;2.50;;;0.90;;
70744;SDS011;59284;31.390;34.904;2023-04-26T03:31:27;2.70;;;1.10;;
70744;SDS011;59284;31.390;34.904;2023-04-26T03:33:53;3.55;;;1.05;;
70744;SDS011;59284;31.390;34.904;2023-04-26T03:36:18;2.67;;;1.20;;
70744;SDS011;59284;31.390;34.904;2023-04-26T03:38:44;3.03;;;1.08;;
70744;SDS011;59284;31.390;34.904;2023-04-26T03:41:10;2.47;;;0.90;;
70744;SDS011;59284;31.390;34.904;2023-04-26T03:43:35;2.53;;;0.95;;
70744;SDS011;59284;31.390;34.904;2023-04-26T03:46:01;3.07;;;1.00;;
70744;SDS011;59284;31.390;34.904;2023-04-26T03:48:27;3.90;;;1.13;;
70744;SDS011;59284;31.390;34.904;2023-04-26T03:50:52;2.00;;;0.90;;
70744;SDS011;59284;31.390;34.904;2023-04-26T03:53:18;3.05;;;1.00;;
70744;SDS011;59284;31.390;34.904;2023-04-26T03:55:44;2.00;;;0.60;;
70744;SDS011;59284;31.390;34.904;2023-04-26T03:58:10;2.85;;;1.13;;
70744;SDS011;59284;31.390;34.904;2023-04-26T04:00:36;2.23;;;1.00;;
70744;SDS011;59284;31.390;34.904;2023-04-26T04:03:02;2.83;;;0.90;;
70744;SDS011;59284;31.390;34.904;2023-04-26T04:05:28;2.83;;;1.02;;
70744;SDS011;59284;31.390;34.904;2023-04-26T04:07:53;3.37;;;1.00;;
70744;SDS011;59284;31.390;34.904;2023-04-26T04:10:20;3.42;;;1.15;;
70744;SDS011;59284;31.390;34.904;2023-04-26T04:12:47;4.75;;;1.15;;
70744;SDS011;59284;31.390;34.904;2023-04-26T04:15:13;3.15;;;1.20;;
70744;SDS011;59284;31.390;34.904;2023-04-26T04:17:39;3.53;;;1.50;;
70744;SDS011;59284;31.390;34.904;2023-04-26T04:20:05;2.67;;;1.30;;
70744;SDS011;59284;31.390;34.904;2023-04-26T04:22:31;4.60;;;1.20;;
70744;SDS011;59284;31.390;34.904;2023-04-26T04:24:57;3.53;;;1.50;;
70744;SDS011;59284;31.390;34.904;2023-04-26T04:27:24;3.97;;;1.40;;
70744;SDS011;59284;31.390;34.904;2023-04-26T04:29:51;3.13;;;1.23;;
70744;SDS011;59284;31.390;34.904;2023-04-26T04:32:18;2.55;;;0.90;;
70744;SDS011;59284;31.390;34.904;2023-04-26T04:34:44;2.10;;;1.00;;
70744;SDS011;59284;31.390;34.904;2023-04-26T04:37:12;3.40;;;1.58;;
70744;SDS011;59284;31.390;34.904;2023-04-26T04:39:38;6.38;;;1.95;;
70744;SDS011;59284;31.390;34.904;2023-04-26T04:42:04;4.90;;;2.13;;
70744;SDS011;59284;31.390;34.904;2023-04-26T04:44:30;5.28;;;1.80;;
70744;SDS011;59284;31.390;34.904;2023-04-26T04:46:55;4.73;;;2.00;;
70744;SDS011;59284;31.390;34.904;2023-04-26T04:49:24;14.82;;;9.50;;
70744;SDS011;59284;31.390;34.904;2023-04-26T04:51:50;8.75;;;6.50;;
70744;SDS011;59284;31.390;34.904;2023-04-26T04:54:16;7.10;;;3.90;;
70744;SDS011;59284;31.390;34.904;2023-04-26T04:56:42;4.57;;;3.25;;
70744;SDS011;59284;31.390;34.904;2023-04-26T04:59:08;3.67;;;2.90;;
70744;SDS011;59284;31.390;34.904;2023-04-26T05:01:34;6.70;;;3.47;;
70744;SDS011;59284;31.390;34.904;2023-04-26T05:04:01;6.97;;;4.53;;
70744;SDS011;59284;31.390;34.904;2023-04-26T05:06:27;4.32;;;2.85;;
70744;SDS011;59284;31.390;34.904;2023-04-26T05:08:53;4.53;;;2.78;;
70744;SDS011;59284;31.390;34.904;2023-04-26T05:11:23;6.67;;;4.97;;
70744;SDS011;59284;31.390;34.904;2023-04-26T05:13:49;5.90;;;3.70;;
70744;SDS011;59284;31.390;34.904;2023-04-26T05:16:15;3.92;;;2.60;;
70744;SDS011;59284;31.390;34.904;2023-04-26T05:18:41;5.97;;;2.20;;
70744;SDS011;59284;31.390;34.904;2023-04-26T05:21:07;3.92;;;1.90;;
70744;SDS011;59284;31.390;34.904;2023-04-26T05:23:32;6.40;;;2.40;;
70744;SDS011;59284;31.390;34.904;2023-04-26T05:26:04;5.80;;;2.53;;
70744;SDS011;59284;31.390;34.904;2023-04-26T05:28:31;3.80;;;2.03;;
70744;SDS011;59284;31.390;34.904;2023-04-26T05:30:57;6.35;;;2.08;;
70744;SDS011;59284;31.390;34.904;2023-04-26T05:33:23;6.10;;;2.05;;
70744;SDS011;59284;31.390;34.904;2023-04-26T05:35:49;3.63;;;1.60;;
70744;SDS011;59284;31.390;34.904;2023-04-26T05:38:14;5.35;;;2.15;;
70744;SDS011;59284;31.390;34.904;2023-04-26T05:40:40;4.63;;;2.13;;
70744;SDS011;59284;31.390;34.904;2023-04-26T05:43:06;3.15;;;1.70;;
70744;SDS011;59284;31.390;34.904;2023-04-26T05:45:31;2.80;;;1.30;;
70744;SDS011;59284;31.390;34.904;2023-04-26T05:47:57;3.58;;;1.50;;
70744;SDS011;59284;31.390;34.904;2023-04-26T05:50:23;2.60;;;1.10;;
70744;SDS011;59284;31.390;34.904;2023-04-26T05:52:48;3.63;;;0.97;;
70744;SDS011;59284;31.390;34.904;2023-04-26T05:55:14;2.42;;;0.77;;
70744;SDS011;59284;31.390;34.904;2023-04-26T05:57:39;4.73;;;1.00;;
70744;SDS011;59284;31.390;34.904;2023-04-26T06:00:05;4.82;;;1.15;;
70744;SDS011;59284;31.390;34.904;2023-04-26T06:02:33;4.25;;;0.95;;
70744;SDS011;59284;31.390;34.904;2023-04-26T06:04:59;2.20;;;0.98;;
70744;SDS011;59284;31.390;34.904;2023-04-26T06:07:25;2.60;;;0.70;;
70744;SDS011;59284;31.390;34.904;2023-04-26T06:09:51;2.73;;;0.90;;
70744;SDS011;59284;31.390;34.904;2023-04-26T06:12:16;1.48;;;0.50;;
70744;SDS011;59284;31.390;34.904;2023-04-26T06:14:43;2.72;;;1.40;;
70744;SDS011;59284;31.390;34.904;2023-04-26T06:17:08;2.63;;;0.53;;
70744;SDS011;59284;31.390;34.904;2023-04-26T06:19:34;2.73;;;1.13;;
70744;SDS011;59284;31.390;34.904;2023-04-26T06:21:59;3.27;;;0.90;;
70744;SDS011;59284;31.390;34.904;2023-04-26T06:24:25;4.60;;;1.03;;
70744;SDS011;59284;31.390;34.904;2023-04-26T06:26:51;4.68;;;1.58;;
70744;SDS011;59284;31.390;34.904;2023-04-26T06:29:16;2.03;;;0.80;;
70744;SDS011;59284;31.390;34.904;2023-04-26T06:31:42;2.10;;;0.70;;
70744;SDS011;59284;31.390;34.904;2023-04-26T06:34:08;3.90;;;0.90;;
70744;SDS011;59284;31.390;34.904;2023-04-26T06:36:33;3.22;;;1.17;;
70744;SDS011;59284;31.390;34.904;2023-04-26T06:38:59;2.47;;;1.17;;
70744;SDS011;59284;31.390;34.904;2023-04-26T06:41:25;2.63;;;1.48;;
70744;SDS011;59284;31.390;34.904;2023-04-26T06:43:51;2.40;;;1.00;;
70744;SDS011;59284;31.390;34.904;2023-04-26T06:46:16;3.50;;;1.15;;
70744;SDS011;59284;31.390;34.904;2023-04-26T06:48:43;3.55;;;0.98;;
70744;SDS011;59284;31.390;34.904;2023-04-26T06:51:08;3.40;;;1.20;;
70744;SDS011;59284;31.390;34.904;2023-04-26T06:53:35;2.67;;;1.02;;
70744;SDS011;59284;31.390;34.904;2023-04-26T06:56:01;3.95;;;1.50;;
70744;SDS011;59284;31.390;34.904;2023-04-26T06:58:26;2.80;;;1.40;;
70744;SDS011;59284;31.390;34.904;2023-04-26T07:00:52;4.38;;;1.70;;
70744;SDS011;59284;31.390;34.904;2023-04-26T07:03:18;2.90;;;1.10;;
70744;SDS011;59284;31.390;34.904;2023-04-26T07:05:43;4.40;;;1.20;;
70744;SDS011;59284;31.390;34.904;2023-04-26T07:08:09;5.75;;;1.63;;
70744;SDS011;59284;31.390;34.904;2023-04-26T07:10:36;3.17;;;1.07;;
70744;SDS011;59284;31.390;34.904;2023-04-26T07:13:03;3.85;;;1.65;;
70744;SDS011;59284;31.390;34.904;2023-04-26T07:15:29;5.47;;;1.63;;
70744;SDS011;59284;31.390;34.904;2023-04-26T07:17:55;4.10;;;2.10;;
70744;SDS011;59284;31.390;34.904;2023-04-26T07:20:21;5.40;;;1.63;;
70744;SDS011;59284;31.390;34.904;2023-04-26T07:22:48;4.63;;;2.00;;
70744;SDS011;59284;31.390;34.904;2023-04-26T07:25:14;6.18;;;1.88;;
70744;SDS011;59284;31.390;34.904;2023-04-26T07:27:40;4.50;;;1.80;;
70744;SDS011;59284;31.390;34.904;2023-04-26T07:30:06;3.80;;;2.15;;
70744;SDS011;59284;31.390;34.904;2023-04-26T07:32:32;3.45;;;1.95;;
70744;SDS011;59284;31.390;34.904;2023-04-26T07:34:58;4.93;;;2.20;;
70744;SDS011;59284;31.390;34.904;2023-04-26T07:37:24;4.60;;;2.00;;
70744;SDS011;59284;31.390;34.904;2023-04-26T07:39:49;4.53;;;2.20;;
70744;SDS011;59284;31.390;34.904;2023-04-26T07:42:15;8.33;;;2.17;;
70744;SDS011;59284;31.390;34.904;2023-04-26T07:44:40;3.63;;;1.73;;
70744;SDS011;59284;31.390;34.904;2023-04-26T07:47:12;3.33;;;1.80;;
70744;SDS011;59284;31.390;34.904;2023-04-26T07:49:38;4.50;;;2.00;;
70744;SDS011;59284;31.390;34.904;2023-04-26T07:52:04;3.67;;;1.30;;
70744;SDS011;59284;31.390;34.904;2023-04-26T07:54:29;3.20;;;1.73;;
70744;SDS011;59284;31.390;34.904;2023-04-26T07:56:55;3.30;;;1.92;;
70744;SDS011;59284;31.390;34.904;2023-04-26T07:59:21;2.90;;;1.80;;
70744;SDS011;59284;31.390;34.904;2023-04-26T08:01:48;4.40;;;1.80;;
70744;SDS011;59284;31.390;34.904;2023-04-26T08:04:14;6.65;;;1.40;;
70744;SDS011;59284;31.390;34.904;2023-04-26T08:06:40;3.37;;;1.50;;
70744;SDS011;59284;31.390;34.904;2023-04-26T08:09:09;3.65;;;1.85;;
70744;SDS011;59284;31.390;34.904;2023-04-26T08:11:35;4.28;;;1.70;;
70744;SDS011;59284;31.390;34.904;2023-04-26T08:14:01;4.10;;;1.67;;
70744;SDS011;59284;31.390;34.904;2023-04-26T08:16:26;3.40;;;1.30;;
70744;SDS011;59284;31.390;34.904;2023-04-26T08:18:52;2.77;;;1.30;;
70744;SDS011;59284;31.390;34.904;2023-04-26T08:21:18;3.70;;;1.40;;
70744;SDS011;59284;31.390;34.904;2023-04-26T08:23:44;4.68;;;1.95;;
70744;SDS011;59284;31.390;34.904;2023-04-26T08:26:10;3.90;;;1.70;;
70744;SDS011;59284;31.390;34.904;2023-04-26T08:28:36;3.33;;;1.47;;
70744;SDS011;59284;31.390;34.904;2023-04-26T08:31:02;4.50;;;2.00;;
70744;SDS011;59284;31.390;34.904;2023-04-26T08:33:28;3.75;;;1.80;;
70744;SDS011;59284;31.390;34.904;2023-04-26T08:35:54;6.50;;;2.10;;
70744;SDS011;59284;31.390;34.904;2023-04-26T08:38:19;3.47;;;1.65;;
70744;SDS011;59284;31.390;34.904;2023-04-26T08:40:46;6.67;;;1.80;;
70744;SDS011;59284;31.390;34.904;2023-04-26T08:43:12;6.03;;;1.60;;
70744;SDS011;59284;31.390;34.904;2023-04-26T08:45:39;5.68;;;1.80;;
70744;SDS011;59284;31.390;34.904;2023-04-26T08:48:06;4.60;;;1.67;;
70744;SDS011;59284;31.390;34.904;2023-04-26T08:50:37;6.03;;;1.90;;
70744;SDS011;59284;31.390;34.904;2023-04-26T08:53:03;3.92;;;1.80;;
70744;SDS011;59284;31.390;34.904;2023-04-26T08:55:29;5.97;;;1.55;;
70744;SDS011;59284;31.390;34.904;2023-04-26T08:57:55;5.43;;;2.00;;
70744;SDS011;59284;31.390;34.904;2023-04-26T09:00:21;5.60;;;2.28;;
70744;SDS011;59284;31.390;34.904;2023-04-26T09:02:50;3.95;;;1.50;;
70744;SDS011;59284;31.390;34.904;2023-04-26T09:05:17;4.23;;;1.90;;
70744;SDS011;59284;31.390;34.904;2023-04-26T09:07:48;4.97;;;1.80;;
70744;SDS011;59284;31.390;34.904;2023-04-26T09:10:17;5.63;;;1.88;;
70744;SDS011;59284;31.390;34.904;2023-04-26T09:12:45;5.68;;;1.52;;
70744;SDS011;59284;31.390;34.904;2023-04-26T09:15:10;4.20;;;1.90;;
70744;SDS011;59284;31.390;34.904;2023-04-26T09:17:39;6.20;;;2.30;;
70744;SDS011;59284;31.390;34.904;2023-04-26T09:20:16;3.15;;;1.63;;
70744;SDS011;59284;31.390;34.904;2023-04-26T09:22:42;3.85;;;1.45;;
70744;SDS011;59284;31.390;34.904;2023-04-26T09:25:09;2.70;;;1.30;;
70744;SDS011;59284;31.390;34.904;2023-04-26T09:27:40;3.40;;;1.37;;
70744;SDS011;59284;31.390;34.904;2023-04-26T09:30:14;5.20;;;1.30;;
70744;SDS011;59284;31.390;34.904;2023-04-26T09:35:31;7.38;;;1.88;;
70744;SDS011;59284;31.390;34.904;2023-04-26T09:37:59;3.13;;;1.48;;
70744;SDS011;59284;31.390;34.904;2023-04-26T09:40:30;3.37;;;1.50;;
70744;SDS011;59284;31.390;34.904;2023-04-26T09:43:06;3.03;;;1.60;;
70744;SDS011;59284;31.390;34.904;2023-04-26T09:46:07;3.80;;;1.45;;
70744;SDS011;59284;31.390;34.904;2023-04-26T09:48:26;3.60;;;1.77;;
70744;SDS011;59284;31.390;34.904;2023-04-26T09:50:55;2.67;;;1.38;;
70744;SDS011;59284;31.390;34.904;2023-04-26T09:56:10;3.25;;;1.48;;
70744;SDS011;59284;31.390;34.904;2023-04-26T09:58:58;2.72;;;1.50;;
70744;SDS011;59284;31.390;34.904;2023-04-26T10:01:25;3.00;;;1.60;;
70744;SDS011;59284;31.390;34.904;2023-04-26T10:03:53;5.13;;;1.48;;
70744;SDS011;59284;31.390;34.904;2023-04-26T10:06:20;5.20;;;1.30;;
70744;SDS011;59284;31.390;34.904;2023-04-26T10:08:46;7.35;;;1.50;;
70744;SDS011;59284;31.390;34.904;2023-04-26T10:11:12;3.23;;;1.40;;
70744;SDS011;59284;31.390;34.904;2023-04-26T10:13:38;3.65;;;1.48;;
70744;SDS011;59284;31.390;34.904;2023-04-26T10:16:04;5.25;;;2.63;;
70744;SDS011;59284;31.390;34.904;2023-04-26T10:18:31;3.65;;;2.28;;
70744;SDS011;59284;31.390;34.904;2023-04-26T10:21:01;3.87;;;1.70;;
70744;SDS011;59284;31.390;34.904;2023-04-26T10:23:31;9.98;;;4.97;;
70744;SDS011;59284;31.390;34.904;2023-04-26T10:25:57;7.45;;;4.40;;
70744;SDS011;59284;31.390;34.904;2023-04-26T10:31:04;4.50;;;2.30;;
70744;SDS011;59284;31.390;34.904;2023-04-26T10:33:31;9.45;;;4.82;;
70744;SDS011;59284;31.390;34.904;2023-04-26T10:36:01;5.38;;;2.63;;
70744;SDS011;59284;31.390;34.904;2023-04-26T10:38:35;12.57;;;6.97;;
70744;SDS011;59284;31.390;34.904;2023-04-26T10:43:54;4.18;;;1.80;;
70744;SDS011;59284;31.390;34.904;2023-04-26T10:46:33;6.07;;;2.78;;
70744;SDS011;59284;31.390;34.904;2023-04-26T10:49:11;7.37;;;2.10;;
70744;SDS011;59284;31.390;34.904;2023-04-26T10:51:38;3.75;;;1.95;;
70744;SDS011;59284;31.390;34.904;2023-04-26T10:54:03;6.05;;;2.47;;
70744;SDS011;59284;31.390;34.904;2023-04-26T10:59:07;10.50;;;5.82;;
70744;SDS011;59284;31.390;34.904;2023-04-26T11:01:33;4.30;;;2.00;;
70744;SDS011;59284;31.390;34.904;2023-04-26T11:06:26;7.97;;;3.72;;
70744;SDS011;59284;31.390;34.904;2023-04-26T11:08:54;4.78;;;2.42;;
70744;SDS011;59284;31.390;34.904;2023-04-26T11:11:24;4.57;;;2.25;;
70744;SDS011;59284;31.390;34.904;2023-04-26T11:13:51;8.33;;;2.87;;
70744;SDS011;59284;31.390;34.904;2023-04-26T11:16:16;7.60;;;2.30;;
70744;SDS011;59284;31.390;34.904;2023-04-26T11:18:42;5.43;;;2.67;;
70744;SDS011;59284;31.390;34.904;2023-04-26T11:21:10;7.38;;;2.95;;
70744;SDS011;59284;31.390;34.904;2023-04-26T11:23:37;3.03;;;1.67;;
70744;SDS011;59284;31.390;34.904;2023-04-26T11:26:03;4.77;;;2.00;;
70744;SDS011;59284;31.390;34.904;2023-04-26T11:28:33;3.25;;;2.35;;
70744;SDS011;59284;31.390;34.904;2023-04-26T11:31:00;6.00;;;1.90;;
70744;SDS011;59284;31.390;34.904;2023-04-26T11:33:29;9.15;;;2.50;;
70744;SDS011;59284;31.390;34.904;2023-04-26T11:35:56;6.60;;;2.77;;
70744;SDS011;59284;31.390;34.904;2023-04-26T11:38:22;5.53;;;2.43;;
70744;SDS011;59284;31.390;34.904;2023-04-26T11:41:06;9.13;;;4.28;;
70744;SDS011;59284;31.390;34.904;2023-04-26T11:46:03;4.75;;;2.15;;
70744;SDS011;59284;31.390;34.904;2023-04-26T11:48:29;4.68;;;2.65;;
70744;SDS011;59284;31.390;34.904;2023-04-26T11:50:55;4.80;;;2.10;;
70744;SDS011;59284;31.390;34.904;2023-04-26T11:53:23;8.93;;;5.07;;
70744;SDS011;59284;31.390;34.904;2023-04-26T11:55:49;5.78;;;3.47;;
70744;SDS011;59284;31.390;34.904;2023-04-26T11:58:15;3.77;;;1.97;;
70744;SDS011;59284;31.390;34.904;2023-04-26T12:00:54;3.50;;;1.90;;
70744;SDS011;59284;31.390;34.904;2023-04-26T12:03:27;5.53;;;3.00;;
70744;SDS011;59284;31.390;34.904;2023-04-26T12:05:59;5.20;;;2.33;;
70744;SDS011;59284;31.390;34.904;2023-04-26T12:08:25;6.30;;;2.72;;
70744;SDS011;59284;31.390;34.904;2023-04-26T12:10:51;5.35;;;2.22;;
70744;SDS011;59284;31.390;34.904;2023-04-26T12:13:17;5.93;;;1.70;;
70744;SDS011;59284;31.390;34.904;2023-04-26T12:15:44;6.07;;;2.33;;
70744;SDS011;59284;31.390;34.904;2023-04-26T12:18:10;5.85;;;2.95;;
70744;SDS011;59284;31.390;34.904;2023-04-26T12:20:37;6.60;;;2.63;;
70744;SDS011;59284;31.390;34.904;2023-04-26T12:23:08;4.28;;;2.88;;
70744;SDS011;59284;31.390;34.904;2023-04-26T12:25:36;6.03;;;3.40;;
70744;SDS011;59284;31.390;34.904;2023-04-26T12:28:03;5.75;;;3.10;;
70744;SDS011;59284;31.390;34.904;2023-04-26T12:30:30;8.48;;;3.05;;
70744;SDS011;59284;31.390;34.904;2023-04-26T12:32:56;7.97;;;3.60;;
70744;SDS011;59284;31.390;34.904;2023-04-26T12:35:22;4.57;;;2.40;;
70744;SDS011;59284;31.390;34.904;2023-04-26T12:37:49;7.75;;;3.97;;
70744;SDS011;59284;31.390;34.904;2023-04-26T12:40:17;9.63;;;3.67;;
70744;SDS011;59284;31.390;34.904;2023-04-26T12:42:45;5.53;;;3.38;;
70744;SDS011;59284;31.390;34.904;2023-04-26T12:45:12;8.27;;;4.67;;
70744;SDS011;59284;31.390;34.904;2023-04-26T12:47:37;4.95;;;3.03;;
70744;SDS011;59284;31.390;34.904;2023-04-26T12:50:03;6.13;;;3.22;;
70744;SDS011;59284;31.390;34.904;2023-04-26T12:52:30;6.20;;;3.57;;
70744;SDS011;59284;31.390;34.904;2023-04-26T12:54:56;6.93;;;3.40;;
70744;SDS011;59284;31.390;34.904;2023-04-26T12:57:22;6.38;;;2.95;;
70744;SDS011;59284;31.390;34.904;2023-04-26T12:59:48;6.68;;;2.78;;
70744;SDS011;59284;31.390;34.904;2023-04-26T13:02:14;4.50;;;2.70;;
70744;SDS011;59284;31.390;34.904;2023-04-26T13:04:39;5.10;;;3.13;;
70744;SDS011;59284;31.390;34.904;2023-04-26T13:07:05;5.00;;;3.00;;
70744;SDS011;59284;31.390;34.904;2023-04-26T13:09:31;3.97;;;2.72;;
70744;SDS011;59284;31.390;34.904;2023-04-26T13:11:57;4.40;;;2.57;;
70744;SDS011;59284;31.390;34.904;2023-04-26T13:14:23;4.15;;;2.58;;
70744;SDS011;59284;31.390;34.904;2023-04-26T13:16:49;7.43;;;3.17;;
70744;SDS011;59284;31.390;34.904;2023-04-26T13:19:16;5.57;;;2.63;;
70744;SDS011;59284;31.390;34.904;2023-04-26T13:21:42;5.10;;;2.00;;
70744;SDS011;59284;31.390;34.904;2023-04-26T13:24:07;4.60;;;2.60;;
70744;SDS011;59284;31.390;34.904;2023-04-26T13:26:33;4.30;;;2.58;;
70744;SDS011;59284;31.390;34.904;2023-04-26T13:28:59;5.57;;;2.00;;
70744;SDS011;59284;31.390;34.904;2023-04-26T13:31:25;4.85;;;2.83;;
70744;SDS011;59284;31.390;34.904;2023-04-26T13:33:51;6.35;;;2.47;;
70744;SDS011;59284;31.390;34.904;2023-04-26T13:36:16;4.23;;;2.10;;
70744;SDS011;59284;31.390;34.904;2023-04-26T13:38:42;6.43;;;2.92;;
70744;SDS011;59284;31.390;34.904;2023-04-26T13:41:08;4.85;;;2.25;;
70744;SDS011;59284;31.390;34.904;2023-04-26T13:43:34;4.83;;;2.20;;
70744;SDS011;59284;31.390;34.904;2023-04-26T13:46:00;3.10;;;1.98;;
70744;SDS011;59284;31.390;34.904;2023-04-26T13:48:26;4.40;;;2.03;;
70744;SDS011;59284;31.390;34.904;2023-04-26T13:50:52;4.75;;;2.40;;
70744;SDS011;59284;31.390;34.904;2023-04-26T13:53:20;4.03;;;2.42;;
70744;SDS011;59284;31.390;34.904;2023-04-26T13:55:46;4.75;;;2.33;;
70744;SDS011;59284;31.390;34.904;2023-04-26T13:58:12;4.17;;;2.30;;
70744;SDS011;59284;31.390;34.904;2023-04-26T14:00:38;5.47;;;2.40;;
70744;SDS011;59284;31.390;34.904;2023-04-26T14:03:04;5.57;;;2.58;;
70744;SDS011;59284;31.390;34.904;2023-04-26T14:05:29;7.23;;;2.43;;
70744;SDS011;59284;31.390;34.904;2023-04-26T14:07:55;4.82;;;2.55;;
70744;SDS011;59284;31.390;34.904;2023-04-26T14:10:21;5.47;;;2.60;;
70744;SDS011;59284;31.390;34.904;2023-04-26T14:12:47;5.53;;;2.75;;
70744;SDS011;59284;31.390;34.904;2023-04-26T14:15:12;4.40;;;2.70;;
70744;SDS011;59284;31.390;34.904;2023-04-26T14:17:39;8.13;;;2.87;;
70744;SDS011;59284;31.390;34.904;2023-04-26T14:20:05;8.82;;;2.80;;
70744;SDS011;59284;31.390;34.904;2023-04-26T14:22:32;5.28;;;3.00;;
70744;SDS011;59284;31.390;34.904;2023-04-26T14:24:58;8.45;;;3.03;;
70744;SDS011;59284;31.390;34.904;2023-04-26T14:27:23;6.73;;;3.53;;
70744;SDS011;59284;31.390;34.904;2023-04-26T14:29:49;5.80;;;3.67;;
70744;SDS011;59284;31.390;34.904;2023-04-26T14:32:15;6.57;;;3.30;;
70744;SDS011;59284;31.390;34.904;2023-04-26T14:34:40;6.18;;;3.42;;
70744;SDS011;59284;31.390;34.904;2023-04-26T14:37:07;4.90;;;3.10;;
70744;SDS011;59284;31.390;34.904;2023-04-26T14:39:33;5.88;;;2.65;;
70744;SDS011;59284;31.390;34.904;2023-04-26T14:41:58;5.80;;;3.45;;
70744;SDS011;59284;31.390;34.904;2023-04-26T14:44:24;6.00;;;3.30;;
70744;SDS011;59284;31.390;34.904;2023-04-26T14:46:50;5.40;;;2.90;;
70744;SDS011;59284;31.390;34.904;2023-04-26T14:49:16;7.38;;;2.85;;